Garuhape, Argentina
Current Conditions -  °F | °C
As of 6:00 PM on Monday 24 Nov 2014 (Local Time) from SARP Reporting Station
Scattered Clouds Scattered Clouds  
Wind Chill: 33°   Ceiling: Unl
Heat Index: 36°   Visibility: 6mi
Dew Point: 21°   Wind: 6mph
Humidity: 49%   Direction: 20°NNE
Pressure: 29.71"   Gusts: NA
Location:  26.86°S, 55.02°W
Report Text: SARP 242100Z 02005KT 9999 FEW035 SCT200 33/21 Q1006
Loading
Personal Weather Stations






























Interactive Weather Map New forecast layout! Learn more

10-Day Weather Forecast

Advertisements
Track Severe Weather on mobile